Latest Weather Observations for Cummins Airport

IDS60801

Issued at 9:31 am CDT Monday 27 February 2017 (issued every 30 minutes, with the page automatically refreshed every 10 minutes)

About weather observations | Map of weather stations | Latest weather observations for SA | Other Formats
Station Details ID: 018217 Name: CUMMINS AERO Lat: -34.25 Lon: 135.71 Height: 60.11 m
Data from the previous 72 hours. | See also: Recent months at Cummins Airport
Date/Time
CDT
Temp
°C
App
Temp
°C
Dew
Point
°C
Rel
Hum
%
Delta-T
°C
Wind Press
QNH
hPa
Press
MSL
hPa
Rain since
9am
mm
Dir  Spd
km/h
Gust
km/h
Spd
kts
Gust
kts
27/09:30am 20.2 20.1 15.0 72 3.1 S 9 9 5 5 1018.2 1018.0 -
27/09:00am 17.1 17.7 15.8 92 0.8 S 7 9 4 5 1018.1 1017.9 0.0
27/08:30am 14.2 15.5 14.2 100 0.0 CALM 0 4 0 2 1018.0 1017.8 0.0
27/08:00am 11.5 10.3 11.5 100 0.0 SSE 9 11 5 6 1017.8 1017.6 0.0
27/07:30am 8.7 8.4 8.6 99 0.0 CALM 0 7 0 4 1017.9 1017.7 0.0
27/07:00am 8.8 7.4 8.7 99 0.0 SSE 6 7 3 4 1017.6 1017.4 0.0
27/06:30am 9.3 9.1 9.2 99 0.0 CALM 0 0 0 0 1017.7 1017.5 0.0
27/06:00am 10.8 11.0 10.6 99 0.1 CALM 0 0 0 0 1017.6 1017.4 0.0
27/05:30am 11.7 10.9 11.2 97 0.3 WSW 6 9 3 5 1017.8 1017.6 0.0
27/05:00am 13.9 13.4 12.8 93 0.6 W 7 11 4 6 1017.9 1017.7 0.0
27/04:30am 16.4 14.5 15.3 93 0.6 ESE 19 26 10 14 1017.8 1017.6 0.0
27/04:00am 16.2 16.5 14.9 92 0.8 ESE 7 13 4 7 1017.6 1017.4 0.0
27/03:30am 15.4 16.1 14.4 94 0.6 SW 4 7 2 4 1017.4 1017.2 0.0
27/03:00am 15.9 15.9 15.1 95 0.5 SSE 9 13 5 7 1017.6 1017.4 0.0
27/02:30am 15.8 15.5 14.3 91 0.9 ESE 9 13 5 7 1017.9 1017.7 0.0
27/02:00am 16.0 16.5 14.9 93 0.6 E 6 11 3 6 1018.2 1018.0 0.0
27/01:30am 15.5 15.6 14.4 93 0.6 SE 7 11 4 6 1018.4 1018.2 0.0
27/01:00am 13.7 13.0 12.1 90 0.9 SW 7 11 4 6 1018.6 1018.4 0.0
27/12:30am 14.6 13.8 12.8 89 1.0 S 9 15 5 8 1018.7 1018.5 0.0
27/12:00am 15.9 14.8 14.3 90 0.9 SSE 13 17 7 9 1018.7 1018.5 0.0
 
Date/Time
CDT
Temp
°C
App
Temp
°C
Dew
Point
°C
Rel
Hum
%
Delta-T
°C
Wind Press
QNH
hPa
Press
MSL
hPa
Rain since
9am
mm
Dir  Spd
km/h
Gust
km/h
Spd
kts
Gust
kts
26/11:30pm 15.7 13.6 13.5 87 1.2 SSE 17 20 9 11 1018.8 1018.6 0.0
26/11:00pm 16.1 14.8 13.6 85 1.4 WSW 13 15 7 8 1019.1 1018.9 0.0
26/10:30pm 16.7 14.1 13.8 83 1.6 SSE 20 24 11 13 1019.0 1018.8 0.0
26/10:00pm 17.4 15.1 13.1 76 2.4 SSE 17 22 9 12 1018.9 1018.7 0.0
26/09:30pm 18.2 15.4 13.1 72 2.9 SSE 20 28 11 15 1018.6 1018.4 0.0
26/09:00pm 18.6 15.7 10.9 61 4.2 SE 17 20 9 11 1018.2 1018.0 0.0
26/08:30pm 19.5 16.3 10.0 54 5.1 SE 17 26 9 14 1017.8 1017.6 0.0
26/08:00pm 21.3 17.7 10.5 50 5.9 SE 20 28 11 15 1017.5 1017.3 0.0
26/07:30pm 23.2 18.5 7.7 37 8.1 ESE 22 28 12 15 1017.2 1017.0 0.0
26/07:00pm 24.8 19.6 5.6 29 9.8 ESE 22 28 12 15 1017.1 1016.9 0.0
26/06:30pm 25.8 20.7 5.9 28 10.3 SE 22 28 12 15 1017.0 1016.8 0.0
26/06:00pm 27.1 22.1 6.5 27 10.8 ESE 22 30 12 16 1016.9 1016.7 0.0
26/05:30pm 27.5 23.1 7.4 28 10.8 SE 20 30 11 16 1016.7 1016.5 0.0
26/05:00pm 28.2 24.1 8.0 28 11.0 ESE 19 28 10 15 1016.8 1016.6 0.0
26/04:30pm 28.5 24.9 8.2 28 11.1 ESE 17 24 9 13 1016.7 1016.5 0.0
26/04:00pm 28.7 26.4 8.9 29 10.9 E 11 24 6 13 1016.8 1016.6 0.0
26/03:30pm 28.9 26.6 9.1 29 11.0 SE 11 22 6 12 1017.1 1016.9 0.0
26/03:00pm 28.4 25.5 8.1 28 11.0 SE 13 20 7 11 1017.4 1017.2 0.0
26/02:30pm 28.0 25.3 8.8 30 10.5 E 13 19 7 10 1017.8 1017.6 0.0
26/02:00pm 26.7 25.0 8.2 31 10.0 ENE 7 17 4 9 1018.1 1017.9 0.0
26/01:30pm 27.0 24.5 9.8 34 9.6 ENE 13 20 7 11 1018.5 1018.3 0.0
26/01:00pm 25.8 23.2 10.8 39 8.4 SE 15 20 8 11 1018.8 1018.6 0.0
26/12:30pm 25.3 22.4 11.1 41 8.0 ESE 17 26 9 14 1019.0 1018.8 0.0
26/12:00pm 24.2 20.9 11.5 45 7.2 ESE 20 30 11 16 1019.2 1019.0 0.0
26/11:30am 23.4 20.3 11.5 47 6.7 E 19 28 10 15 1019.4 1019.2 0.0
26/11:00am 22.8 19.8 12.7 53 5.8 ESE 20 35 11 19 1019.5 1019.3 0.0
26/10:30am 21.4 18.8 13.1 59 4.7 ESE 19 24 10 13 1019.8 1019.6 0.0
26/10:00am 20.2 16.9 12.7 62 4.2 ESE 22 32 12 17 1020.0 1019.8 0.0
26/09:30am 19.8 16.4 13.7 68 3.5 ESE 24 30 13 16 1020.1 1019.9 0.0
26/09:00am 17.7 16.3 13.4 76 2.4 SE 13 19 7 10 1020.4 1020.2 0.0
26/08:30am 14.7 14.0 13.2 91 0.8 SE 9 9 5 5 1020.5 1020.3 0.0
26/08:00am 12.3 11.3 12.3 100 0.0 SSW 9 11 5 6 1020.6 1020.4 0.0
26/07:30am 10.3 8.6 10.0 98 0.2 WSW 9 11 5 6 1020.4 1020.2 0.0
26/07:00am 10.3 8.6 9.8 97 0.3 W 9 11 5 6 1020.2 1020.0 0.0
26/06:30am 10.0 8.2 9.4 96 0.3 SSE 9 11 5 6 1019.9 1019.7 0.0
26/06:00am 11.1 9.6 10.5 96 0.3 SSE 9 11 5 6 1019.8 1019.6 0.0
26/05:30am 10.9 8.5 10.0 94 0.5 S 13 15 7 8 1019.8 1019.6 0.0
26/05:00am 12.4 11.1 11.1 92 0.7 S 9 13 5 7 1019.9 1019.7 0.0
26/04:30am 12.0 10.9 10.7 92 0.7 WSW 7 9 4 5 1020.0 1019.8 0.0
26/04:00am 12.7 10.7 11.4 92 0.7 SSE 13 15 7 8 1020.1 1019.9 0.0
26/03:30am 12.9 13.1 10.6 86 1.2 CALM 0 0 0 0 1020.2 1020.0 0.0
26/03:00am 13.6 11.5 11.3 86 1.2 SE 13 15 7 8 1020.4 1020.2 0.0
26/02:30am 14.2 13.0 11.5 84 1.4 ESE 9 13 5 7 1020.7 1020.5 0.0
26/02:00am 14.6 12.7 11.9 84 1.5 SE 13 17 7 9 1021.0 1020.8 0.0
26/01:30am 14.6 13.0 11.6 82 1.6 SE 11 17 6 9 1021.3 1021.1 0.0
26/01:00am 15.3 12.7 11.9 80 1.8 ESE 17 20 9 11 1021.4 1021.2 0.0
26/12:30am 15.3 12.5 11.5 78 2.0 SE 17 20 9 11 1021.6 1021.4 0.0
26/12:00am 15.1 13.0 11.3 78 2.0 ESE 13 17 7 9 1021.9 1021.7 0.0
 
Date/Time
CDT
Temp
°C
App
Temp
°C
Dew
Point
°C
Rel
Hum
%
Delta-T
°C
Wind Press
QNH
hPa
Press
MSL
hPa
Rain since
9am
mm
Dir  Spd
km/h
Gust
km/h
Spd
kts
Gust
kts
25/11:30pm 15.8 14.6 11.6 76 2.3 ESE 9 13 5 7 1022.1 1021.9 0.0
25/11:00pm 15.8 13.8 11.6 76 2.3 SE 13 17 7 9 1022.2 1022.0 0.0
25/10:30pm 15.8 13.7 12.5 81 1.8 SE 15 17 8 9 1022.3 1022.1 0.0
25/10:00pm 15.9 14.2 12.6 81 1.8 SSE 13 17 7 9 1022.3 1022.1 0.0
25/09:30pm 16.3 15.1 12.7 79 2.0 SSE 11 15 6 8 1022.5 1022.3 0.0
25/09:00pm 17.1 15.8 12.4 74 2.6 SSE 11 15 6 8 1022.3 1022.1 0.0
25/08:30pm 17.8 14.8 12.5 71 2.9 SE 20 26 11 14 1022.2 1022.0 0.0
25/08:00pm 18.5 14.9 12.0 66 3.6 SE 22 30 12 16 1022.0 1021.8 0.0
25/07:30pm 19.3 14.6 12.1 63 4.0 SE 28 35 15 19 1021.9 1021.7 0.0
25/07:00pm 20.4 15.6 11.6 57 4.9 SE 28 35 15 19 1021.9 1021.7 0.0
25/06:30pm 21.1 16.1 10.9 52 5.6 SE 28 37 15 20 1021.9 1021.7 0.0
25/06:00pm 21.9 17.1 11.6 52 5.7 SE 28 37 15 20 1021.8 1021.6 0.0
25/05:30pm 22.1 16.5 11.5 51 5.9 SE 32 41 17 22 1021.8 1021.6 0.0
25/05:00pm 22.9 18.0 11.3 48 6.5 SE 28 37 15 20 1021.8 1021.6 0.0
25/04:30pm 23.0 17.8 11.7 49 6.3 SE 30 39 16 21 1022.1 1021.9 0.0
25/04:00pm 23.6 18.9 12.0 48 6.6 SE 28 39 15 21 1022.5 1022.3 0.0
25/03:30pm 22.9 18.6 11.9 50 6.2 SE 26 37 14 20 1022.9 1022.7 0.0
25/03:00pm 22.3 17.5 11.7 51 5.9 SE 28 39 15 21 1023.3 1023.1 0.0
25/02:30pm 23.0 18.9 11.4 48 6.5 SE 24 39 13 21 1023.7 1023.5 0.0
25/02:00pm 23.5 19.4 11.5 47 6.8 SE 24 35 13 19 1024.0 1023.8 0.0
25/01:30pm 22.9 18.3 11.0 47 6.6 SE 26 39 14 21 1024.1 1023.9 0.0
25/01:00pm 22.8 18.0 11.5 49 6.3 SE 28 41 15 22 1024.5 1024.3 0.0
25/12:30pm 22.5 17.3 10.3 46 6.7 SE 28 43 15 23 1024.8 1024.6 0.0
25/12:00pm 21.9 17.1 10.4 48 6.3 ESE 26 37 14 20 1025.2 1025.0 0.0
25/11:30am 21.4 15.9 10.6 50 5.9 ESE 30 37 16 20 1025.4 1025.2 0.0
25/11:00am 19.8 15.0 10.2 54 5.2 SE 26 35 14 19 1025.7 1025.5 0.0
25/10:30am 19.7 15.0 10.7 56 4.9 SE 26 33 14 18 1025.9 1025.7 0.0
25/10:00am 19.1 14.6 11.4 61 4.2 SE 26 33 14 18 1025.9 1025.7 0.0
25/09:30am 18.7 14.8 10.8 60 4.3 SE 22 33 12 18 1026.1 1025.9 0.0
25/09:00am 18.0 13.5 10.1 60 4.2 SE 24 35 13 19 1026.0 1025.8 0.0
25/08:30am 17.7 13.1 11.0 65 3.6 SE 26 35 14 19 1025.6 1025.4 0.0
25/08:00am 17.5 14.1 11.1 66 3.5 SE 20 24 11 13 1025.4 1025.2 0.0
25/07:30am 17.3 14.1 11.1 67 3.3 SE 19 24 10 13 1025.5 1025.3 0.0
25/07:00am 17.1 13.5 10.7 66 3.4 SE 20 28 11 15 1025.3 1025.1 0.0
25/06:30am 17.0 13.4 10.6 66 3.4 SE 20 26 11 14 1025.4 1025.2 0.0
25/06:00am 17.0 13.6 10.6 66 3.4 SE 19 26 10 14 1025.1 1024.9 0.0
25/05:30am 16.9 13.2 10.3 65 3.5 SE 20 28 11 15 1024.9 1024.7 0.0
25/05:00am 16.8 12.7 10.2 65 3.5 SE 22 30 12 16 1024.7 1024.5 0.0
25/04:30am 16.7 13.2 10.1 65 3.5 SE 19 28 10 15 1024.6 1024.4 0.0
25/04:00am 16.8 12.3 10.2 65 3.5 SE 24 33 13 18 1024.8 1024.6 0.0
25/03:30am 16.8 11.9 10.0 64 3.6 SE 26 35 14 19 1024.9 1024.7 0.0
25/03:00am 17.0 12.5 10.1 64 3.6 SE 24 35 13 19 1024.8 1024.6 0.0
25/02:30am 17.1 13.4 10.0 63 3.7 SE 20 28 11 15 1025.1 1024.9 0.0
25/02:00am 17.1 12.8 9.5 61 4.0 SSE 22 33 12 18 1025.4 1025.2 0.0
25/01:30am 17.3 12.8 10.0 62 3.8 SE 24 33 13 18 1025.8 1025.6 0.0
25/01:00am 17.6 12.8 10.2 62 3.9 SSE 26 33 14 18 1026.1 1025.9 0.0
25/12:30am 17.9 13.5 10.5 62 3.9 SE 24 33 13 18 1026.2 1026.0 0.0
25/12:00am 17.9 13.0 10.0 60 4.2 SE 26 35 14 19 1026.4 1026.2 0.0
 
Date/Time
CDT
Temp
°C
App
Temp
°C
Dew
Point
°C
Rel
Hum
%
Delta-T
°C
Wind Press
QNH
hPa
Press
MSL
hPa
Rain since
9am
mm
Dir  Spd
km/h
Gust
km/h
Spd
kts
Gust
kts
24/11:30pm 18.0 14.7 11.6 66 3.5 SSE 20 30 11 16 1026.6 1026.4 0.0
24/11:00pm 18.0 14.8 11.1 64 3.7 SSE 19 30 10 16 1026.7 1026.5 0.0
24/10:30pm 17.8 14.4 10.7 63 3.8 SSE 19 28 10 15 1026.7 1026.5 0.0
24/10:00pm 16.9 14.9 10.1 64 3.6 SSE 11 15 6 8 1026.8 1026.6 0.0
24/09:30pm 16.9 13.9 10.5 66 3.4 S 17 20 9 11 1027.0 1026.8 0.0
24/09:00pm 16.4 13.3 10.3 67 3.2 SSE 17 22 9 12 1026.8 1026.6 0.0
24/08:30pm 17.0 13.5 10.1 64 3.6 SSE 19 24 10 13 1026.6 1026.4 0.0
24/08:00pm 17.7 12.5 10.1 61 4.0 SSE 28 35 15 19 1026.4 1026.2 0.0
24/07:30pm 18.1 13.3 10.2 60 4.2 SSE 26 35 14 19 1026.3 1026.1 0.0
24/07:00pm 18.7 13.0 9.8 56 4.7 SE 30 43 16 23 1026.2 1026.0 0.0
24/06:30pm 19.4 14.2 10.1 55 5.0 SSE 28 37 15 20 1026.1 1025.9 0.0
24/06:00pm 19.5 13.9 10.0 54 5.1 SE 30 39 16 21 1026.0 1025.8 0.0
24/05:30pm 19.8 14.6 10.2 54 5.1 SSE 28 35 15 19 1025.9 1025.7 0.0
24/05:00pm 20.7 15.5 10.2 51 5.7 SSE 28 37 15 20 1025.7 1025.5 0.0
24/04:30pm 21.5 16.6 10.0 48 6.2 SSE 26 39 14 21 1025.7 1025.5 0.0
24/04:00pm 21.2 16.5 9.4 47 6.3 SSE 24 33 13 18 1025.8 1025.6 0.0
24/03:30pm 22.6 17.4 10.4 46 6.7 SE 28 41 15 22 1025.9 1025.7 0.0
24/03:00pm 23.3 18.5 10.4 44 7.1 SSE 26 35 14 19 1026.0 1025.8 0.0
24/02:30pm 21.7 17.1 9.6 46 6.5 SE 24 35 13 19 1026.2 1026.0 0.0
24/02:00pm 21.7 17.0 9.3 45 6.6 SE 24 37 13 20 1026.5 1026.3 0.0
24/01:30pm 20.7 16.8 9.6 49 5.9 SE 20 32 11 17 1026.7 1026.5 0.0
24/01:00pm 21.3 16.6 10.5 50 5.9 SE 26 33 14 18 1027.1 1026.9 0.0
24/12:30pm 21.7 18.0 9.6 46 6.5 SSE 19 39 10 21 1027.2 1027.0 0.0
24/12:00pm 21.0 16.2 8.9 46 6.4 SE 24 35 13 19 1027.4 1027.2 0.0
24/11:30am 20.1 15.3 8.8 48 5.9 SSE 24 33 13 18 1027.6 1027.4 0.0
24/11:00am 19.4 14.7 9.3 52 5.3 SSE 24 30 13 16 1027.7 1027.5 0.0
24/10:30am 19.7 15.4 9.3 51 5.5 S 22 33 12 18 1027.6 1027.4 0.0
24/10:00am 18.8 14.5 9.3 54 5.0 SSE 22 35 12 19 1027.5 1027.3 0.0

Other Formats:

Comma delimited format used in spreadsheet applications
http://www.bom.gov.au/fwo/IDS60801/IDS60801.95663.axf

JavaScript Object Notation format (JSON) in row-major order
http://www.bom.gov.au/fwo/IDS60801/IDS60801.95663.json